Time;durP1;ratioP1;P1;durP2;ratioP2;P2;SDS_P1;SDS_P2;PMS_P1;PMS_P2;Temp;Humidity;BMP_temperature;BMP_pressure;BME280_temperature;BME280_humidity;BME280_pressure;Samples;Min_cycle;Max_cycle;Signal;HPM_P1;HPM_P2
2021/09/14 00:00:22;;;;;;;29.63;17.10;;;;;;;11.09;78.62;100934.58;1791104;80;21635;-77
2021/09/14 00:02:50;;;;;;;31.65;17.98;;;;;;;11.08;78.67;100938.27;1825353;78;21026;-77
2021/09/14 00:05:16;;;;;;;29.57;16.23;;;;;;;11.07;78.70;100933.91;1794425;79;21519;-77
2021/09/14 00:07:42;;;;;;;34.33;18.45;;;;;;;11.04;78.74;100936.91;1796803;79;21487;-77
2021/09/14 00:10:08;;;;;;;33.05;16.90;;;;;;;11.02;78.81;100932.20;1765156;81;21488;-77
2021/09/14 00:12:34;;;;;;;31.75;18.12;;;;;;;11.00;78.85;100927.54;1796677;79;21072;-77
2021/09/14 00:15:00;;;;;;;32.33;18.00;;;;;;;10.98;78.89;100932.19;1765454;81;21523;-77
2021/09/14 00:17:26;;;;;;;33.23;16.75;;;;;;;10.97;78.93;100934.53;1773974;78;21016;-77
2021/09/14 00:19:53;;;;;;;29.52;17.32;;;;;;;10.95;78.95;100938.69;1765579;81;21041;-77
2021/09/14 00:22:19;;;;;;;35.10;17.62;;;;;;;10.93;78.99;100941.19;1796582;79;20978;-77
2021/09/14 00:24:45;;;;;;;38.10;18.55;;;;;;;10.91;79.03;100937.81;1796994;79;21103;-77
2021/09/14 00:27:11;;;;;;;29.70;17.67;;;;;;;10.89;79.06;100933.16;1796740;79;20955;-77
2021/09/14 00:29:37;;;;;;;34.53;17.55;;;;;;;10.86;79.08;100934.31;1797066;79;20959;-77
2021/09/14 00:32:04;;;;;;;35.48;17.48;;;;;;;10.85;79.13;100933.13;1797800;78;21475;-77
2021/09/14 00:34:30;;;;;;;32.53;17.70;;;;;;;10.83;79.17;100936.46;1763714;81;20985;-77
2021/09/14 00:36:56;;;;;;;45.60;22.00;;;;;;;10.83;79.19;100935.97;1765508;81;21157;-77
2021/09/14 00:39:22;;;;;;;37.85;19.75;;;;;;;10.81;79.25;100935.77;1796611;79;20951;-77
2021/09/14 00:41:48;;;;;;;34.60;18.07;;;;;;;10.79;79.26;100929.77;1763463;80;21533;-77
2021/09/14 00:44:14;;;;;;;32.05;19.17;;;;;;;10.77;79.32;100931.73;1790591;79;21424;-77
2021/09/14 00:46:40;;;;;;;28.73;15.95;;;;;;;10.77;79.35;100929.06;1796763;79;20993;-77
2021/09/14 00:49:06;;;;;;;26.75;16.57;;;;;;;10.74;79.39;100924.05;1829484;78;21106;-77
2021/09/14 00:51:32;;;;;;;25.60;15.88;;;;;;;10.74;79.44;100932.05;1796734;79;20959;-77
2021/09/14 00:53:59;;;;;;;29.18;17.15;;;;;;;10.71;79.47;100927.88;1795337;80;21019;-77
2021/09/14 00:56:25;;;;;;;29.82;18.55;;;;;;;10.68;79.51;100919.36;1829516;78;20936;-77
2021/09/14 00:58:51;;;;;;;29.05;16.17;;;;;;;10.69;79.54;100930.38;1796545;79;21497;-77
2021/09/14 01:01:17;;;;;;;30.08;18.05;;;;;;;10.68;79.56;100930.03;1796302;79;21002;-77
2021/09/14 01:03:43;;;;;;;31.68;16.97;;;;;;;10.68;79.60;100938.03;1796863;79;21057;-77
2021/09/14 01:06:09;;;;;;;32.45;17.70;;;;;;;10.67;79.62;100936.34;1796153;78;21087;-77
2021/09/14 01:08:36;;;;;;;27.40;16.55;;;;;;;10.64;79.68;100932.17;1796230;79;21112;-77
2021/09/14 01:11:03;;;;;;;25.15;17.50;;;;;;;10.63;79.71;100937.65;1796410;79;21011;-77
2021/09/14 01:13:29;;;;;;;29.15;16.85;;;;;;;10.62;79.75;100934.17;1810810;77;21785;-77
2021/09/14 01:15:55;;;;;;;28.00;16.75;;;;;;;10.60;79.77;100930.81;1796167;79;20990;-77
2021/09/14 01:18:21;;;;;;;24.52;15.60;;;;;;;10.60;79.81;100934.81;1794516;80;20958;-77
2021/09/14 01:20:47;;;;;;;29.90;17.50;;;;;;;10.60;79.84;100928.63;1828731;78;20995;-77
2021/09/14 01:23:13;;;;;;;26.65;16.52;;;;;;;10.62;79.85;100928.00;1795988;80;21017;-77
2021/09/14 01:25:39;;;;;;;32.17;17.10;;;;;;;10.63;79.88;100930.98;1796259;79;21110;-77
2021/09/14 01:28:05;;;;;;;33.20;17.60;;;;;;;10.66;79.91;100934.70;1808459;78;21443;-77
2021/09/14 01:30:32;;;;;;;27.35;17.12;;;;;;;10.69;79.94;100927.70;1783458;79;21053;-77
2021/09/14 01:32:58;;;;;;;28.85;16.67;;;;;;;10.73;79.97;100927.21;1796250;79;20939;-77
2021/09/14 01:35:26;;;;;;;25.40;16.10;;;;;;;10.80;80.01;100928.78;1764918;81;21017;-77
2021/09/14 01:37:53;;;;;;;24.37;17.10;;;;;;;10.85;80.02;100927.30;1796266;79;21158;-77
2021/09/14 01:40:19;;;;;;;29.60;16.52;;;;;;;10.90;80.05;100927.67;1796129;79;21015;-77
2021/09/14 01:42:45;;;;;;;29.50;17.12;;;;;;;10.98;80.07;100940.19;1796565;78;21003;-77
2021/09/14 01:45:12;;;;;;;23.62;16.25;;;;;;;11.03;80.10;100940.07;1763159;81;21022;-77
2021/09/14 01:47:40;;;;;;;24.15;16.60;;;;;;;11.09;80.11;100933.23;1764769;81;20966;-77
2021/09/14 01:50:08;;;;;;;26.55;17.20;;;;;;;11.14;80.16;100932.77;1796395;79;21144;-77
2021/09/14 01:52:34;;;;;;;26.70;17.42;;;;;;;11.19;80.19;100943.29;1763043;81;21475;-77
2021/09/14 01:55:03;;;;;;;27.27;16.27;;;;;;;11.26;80.24;100941.65;1796418;79;21443;-77
2021/09/14 01:57:33;;;;;;;26.68;17.48;;;;;;;11.31;80.26;100938.02;1800082;78;21022;-77
2021/09/14 01:59:58;;;;;;;27.48;18.10;;;;;;;11.37;80.28;100938.70;1817061;78;20955;-77
2021/09/14 02:42:31;;;;;;;29.23;19.40;;;;;;;11.83;80.84;100929.81;1761325;81;21882;-77
2021/09/14 02:58:41;;;;;;;44.73;22.22;;;;;;;11.69;80.99;100925.08;1757657;81;21015;-77
2021/09/14 03:01:08;;;;;;;35.83;20.08;;;;;;;11.66;81.03;100922.75;1748289;80;21038;-77
2021/09/14 03:03:35;;;;;;;29.37;16.35;;;;;;;11.60;81.07;100918.91;1760514;81;21043;-77
2021/09/14 03:06:02;;;;;;;24.72;15.78;;;;;;;11.53;81.07;100912.05;1748608;80;21066;-77
2021/09/14 03:08:28;;;;;;;26.85;16.02;;;;;;;11.49;81.10;100913.87;1775896;80;21128;-77
2021/09/14 03:10:54;;;;;;;26.95;16.65;;;;;;;11.45;81.12;100912.02;1775460;80;20963;-77
2021/09/14 03:13:20;;;;;;;24.27;15.38;;;;;;;11.42;81.15;100912.35;1785932;79;21046;-77
2021/09/14 03:15:46;;;;;;;29.50;17.02;;;;;;;11.40;81.17;100913.48;1807494;79;21254;-77
2021/09/14 03:18:12;;;;;;;30.97;17.90;;;;;;;11.36;81.20;100909.01;1807281;79;21031;-77
2021/09/14 03:20:38;;;;;;;29.42;17.87;;;;;;;11.32;81.22;100897.47;1807597;79;21174;-77
2021/09/14 03:23:04;;;;;;;38.53;20.50;;;;;;;11.28;81.24;100903.62;1806822;79;20955;-77
2021/09/14 03:25:30;;;;;;;44.93;21.45;;;;;;;11.23;81.28;100901.09;1807405;79;21019;-76
2021/09/14 03:27:56;;;;;;;38.83;20.82;;;;;;;11.20;81.29;100903.59;1780298;80;21550;-77
2021/09/14 03:30:22;;;;;;;41.88;17.75;;;;;;;11.15;81.31;100906.42;1791105;79;21014;-77
2021/09/14 03:32:49;;;;;;;28.45;15.48;;;;;;;11.08;81.33;100907.56;1759852;81;21288;-77
2021/09/14 03:35:15;;;;;;;24.90;14.93;;;;;;;11.04;81.37;100904.87;1790870;80;21002;-77
2021/09/14 03:37:41;;;;;;;25.92;15.35;;;;;;;11.00;81.40;100901.69;1791147;80;20958;-77
2021/09/14 03:40:08;;;;;;;24.67;16.80;;;;;;;10.95;81.41;100894.65;1791036;80;20974;-77
2021/09/14 03:42:34;;;;;;;30.05;17.98;;;;;;;10.92;81.43;100897.64;1797149;78;21003;-77
2021/09/14 03:45:00;;;;;;;32.08;16.48;;;;;;;10.89;81.47;100890.45;1823342;78;21417;-77
2021/09/14 03:47:26;;;;;;;22.67;15.45;;;;;;;10.86;81.48;100897.45;1823544;78;21677;-77
2021/09/14 03:49:52;;;;;;;27.73;16.02;;;;;;;10.79;81.48;100897.75;1823446;78;20978;-77
2021/09/14 03:52:18;;;;;;;27.93;14.93;;;;;;;10.75;81.51;100895.05;1823096;78;20963;-77
2021/09/14 03:54:44;;;;;;;27.70;16.40;;;;;;;10.73;81.55;100895.73;1823620;78;21022;-77
2021/09/14 03:57:10;;;;;;;26.30;17.25;;;;;;;10.70;81.58;100898.68;1818116;78;21001;-77
2021/09/14 03:59:40;;;;;;;35.30;19.45;;;;;;;10.67;81.59;100896.34;1758285;81;20921;-77
2021/09/14 04:02:11;;;;;;;29.82;16.75;;;;;;;10.64;81.62;100892.16;1816466;78;32529;-77
2021/09/14 04:05:25;;;;;;;29.15;14.03;;;;;;;10.60;81.63;100890.80;1757403;81;21467;-77
2021/09/14 04:09:35;;;;;;;24.83;13.60;;;;;;;10.53;81.72;100893.27;1793004;80;21133;-77
2021/09/14 04:12:01;;;;;;;28.42;14.28;;;;;;;10.47;81.72;100899.23;1760065;81;20954;-77
2021/09/14 04:14:29;;;;;;;27.45;14.73;;;;;;;10.44;81.75;100900.89;1761523;81;20962;-77
2021/09/14 04:16:55;;;;;;;20.85;13.90;;;;;;;10.42;81.77;100904.19;1798142;78;21023;-77
2021/09/14 04:19:21;;;;;;;26.52;14.20;;;;;;;10.43;81.81;100909.88;1825473;78;20959;-77
2021/09/14 04:21:47;;;;;;;28.57;14.10;;;;;;;10.42;81.80;100917.52;1825498;78;21178;-77
2021/09/14 04:24:14;;;;;;;22.75;13.58;;;;;;;10.42;81.83;100921.52;1825338;78;21018;-77
2021/09/14 04:26:40;;;;;;;21.68;14.00;;;;;;;10.44;81.85;100926.22;1825794;78;21416;-77
2021/09/14 04:29:06;;;;;;;21.35;13.90;;;;;;;10.44;81.85;100926.22;1825554;78;20984;-77
2021/09/14 04:31:32;;;;;;;18.77;13.62;;;;;;;10.45;81.87;100925.70;1822402;78;20948;-77
2021/09/14 04:33:58;;;;;;;24.75;15.60;;;;;;;10.47;81.89;100931.23;1760325;81;21135;-77
2021/09/14 04:36:24;;;;;;;26.85;14.70;;;;;;;10.50;81.90;100921.59;1761503;81;21042;-77
2021/09/14 04:38:50;;;;;;;26.48;15.30;;;;;;;10.53;81.90;100922.60;1793206;79;20999;-77
2021/09/14 04:41:16;;;;;;;33.85;17.32;;;;;;;10.56;81.92;100921.94;1760155;81;21446;-77
2021/09/14 04:43:42;;;;;;;44.60;17.77;;;;;;;10.58;81.95;100918.63;1761848;81;21017;-77
2021/09/14 04:46:08;;;;;;;53.52;20.37;;;;;;;10.62;81.97;100921.33;1794248;78;21151;-77
2021/09/14 04:48:34;;;;;;;50.48;21.23;;;;;;;10.64;81.98;100916.17;1825352;78;20951;-77
2021/09/14 04:51:00;;;;;;;51.05;22.00;;;;;;;10.69;81.99;100913.04;1825821;78;20940;-77
2021/09/14 04:53:26;;;;;;;66.45;20.92;;;;;;;10.73;82.04;100905.06;1825499;78;20940;-77
2021/09/14 04:55:52;;;;;;;65.37;22.70;;;;;;;10.76;82.04;100912.25;1825898;78;21483;-77
2021/09/14 04:58:18;;;;;;;75.92;24.90;;;;;;;10.78;82.06;100914.74;1825528;78;21643;-77
2021/09/14 05:00:44;;;;;;;66.28;27.93;;;;;;;10.80;82.11;100912.77;1825510;78;21052;-77
2021/09/14 05:03:11;;;;;;;68.47;28.52;;;;;;;10.87;82.14;100919.14;1819462;78;21387;-77
2021/09/14 05:05:37;;;;;;;67.82;28.12;;;;;;;10.96;82.17;100918.17;1760202;81;21011;-77
2021/09/14 05:08:04;;;;;;;75.15;28.95;;;;;;;11.05;82.18;100921.20;1795842;79;21474;-78
2021/09/14 05:10:30;;;;;;;72.45;26.37;;;;;;;11.11;82.21;100921.92;1764411;81;21634;-77
2021/09/14 05:12:56;;;;;;;73.28;27.45;;;;;;;11.11;82.22;100917.08;1796295;80;20916;-77
2021/09/14 05:15:22;;;;;;;63.33;26.60;;;;;;;11.19;82.28;100916.59;1796193;79;20958;-77
2021/09/14 05:17:48;;;;;;;71.62;26.07;;;;;;;11.35;82.32;100923.84;1814076;78;21010;-77
2021/09/14 05:20:14;;;;;;;61.13;25.12;;;;;;;11.52;82.34;100921.05;1797127;78;20886;-77
2021/09/14 05:22:41;;;;;;;59.30;24.18;;;;;;;11.75;82.34;100923.14;1764046;79;21192;-76
2021/09/14 05:25:08;;;;;;;52.08;26.65;;;;;;;11.93;82.31;100915.80;1806213;78;20939;-77
2021/09/14 05:27:34;;;;;;;58.28;25.25;;;;;;;12.12;82.31;100914.64;1793814;79;21018;-76
2021/09/14 05:30:00;;;;;;;58.05;26.68;;;;;;;12.33;82.28;100918.48;1796078;79;21037;-77
2021/09/14 05:32:27;;;;;;;67.82;28.23;;;;;;;12.49;82.20;100915.77;1818568;78;20950;-77
2021/09/14 05:34:53;;;;;;;65.95;27.02;;;;;;;12.64;82.05;100917.75;1782782;79;21474;-77
2021/09/14 05:37:21;;;;;;;62.90;28.55;;;;;;;12.75;81.97;100920.08;1796079;79;21009;-77
2021/09/14 05:39:47;;;;;;;60.58;27.45;;;;;;;12.85;81.96;100918.87;1769827;79;20950;-77
2021/09/14 05:42:13;;;;;;;56.92;24.72;;;;;;;12.96;81.93;100917.67;1796060;79;21440;-77
2021/09/14 05:44:38;;;;;;;53.87;27.42;;;;;;;13.12;81.87;100912.31;1795905;79;21609;-77
2021/09/14 05:47:05;;;;;;;50.80;27.05;;;;;;;13.26;81.87;100913.42;1782580;79;21149;-77
2021/09/14 05:49:31;;;;;;;52.30;27.05;;;;;;;13.36;81.86;100910.85;1800060;78;20963;-77
2021/09/14 05:51:58;;;;;;;53.35;26.80;;;;;;;13.66;81.84;100908.31;1796183;79;20986;-77
2021/09/14 05:54:25;;;;;;;44.18;22.27;;;;;;;13.97;81.77;100907.76;1794541;80;21440;-77
2021/09/14 05:56:51;;;;;;;28.23;15.88;;;;;;;14.17;81.71;100908.95;1829058;78;21038;-77
2021/09/14 05:59:17;;;;;;;27.58;16.57;;;;;;;14.42;81.66;100913.12;1796177;79;21130;-77
2021/09/14 06:01:43;;;;;;;25.40;16.45;;;;;;;14.69;81.55;100910.83;1795864;79;21010;-77
2021/09/14 06:04:09;;;;;;;26.57;15.43;;;;;;;14.89;81.41;100907.92;1817672;78;20894;-77
2021/09/14 06:06:35;;;;;;;25.48;16.17;;;;;;;15.06;81.28;100915.30;1774110;79;21550;-77
2021/09/14 06:09:01;;;;;;;32.55;16.73;;;;;;;15.19;80.97;100914.95;1796273;79;21545;-77
2021/09/14 06:11:27;;;;;;;24.60;16.77;;;;;;;15.28;80.97;100909.79;1787613;79;21055;-77
2021/09/14 06:13:53;;;;;;;31.17;19.42;;;;;;;15.52;80.82;100918.59;1789994;79;21038;-76
2021/09/14 06:16:19;;;;;;;26.57;19.55;;;;;;;15.73;80.63;100914.56;1793754;79;21089;-77
2021/09/14 06:18:46;;;;;;;32.45;20.85;;;;;;;15.85;80.43;100923.81;1791307;79;21018;-77
2021/09/14 06:21:13;;;;;;;30.60;20.77;;;;;;;15.97;80.21;100923.64;1798215;79;20995;-77
2021/09/14 06:23:40;;;;;;;27.37;20.17;;;;;;;16.19;80.01;100927.12;1793050;79;21700;-77
2021/09/14 06:26:06;;;;;;;32.08;21.90;;;;;;;16.38;79.71;100927.31;1788323;79;20992;-77
2021/09/14 06:28:32;;;;;;;31.70;20.08;;;;;;;16.41;79.47;100924.23;1816326;78;21063;-77
2021/09/14 06:30:58;;;;;;;31.15;23.83;;;;;;;16.51;79.37;100926.58;1822320;78;21237;-77
2021/09/14 06:33:24;;;;;;;39.45;25.95;;;;;;;16.61;79.19;100924.91;1806380;78;20969;-77
2021/09/14 06:35:50;;;;;;;33.33;23.05;;;;;;;16.66;78.95;100919.78;1823924;78;21139;-77
2021/09/14 06:38:16;;;;;;;32.88;21.30;;;;;;;16.86;78.80;100914.84;1787630;79;21046;-77
2021/09/14 06:40:42;;;;;;;29.30;19.73;;;;;;;17.04;78.61;100922.41;1794714;79;21328;-77
2021/09/14 06:43:08;;;;;;;29.40;19.17;;;;;;;17.29;78.40;100923.56;1792810;79;21260;-77
2021/09/14 06:45:34;;;;;;;32.70;18.67;;;;;;;17.57;78.12;100929.41;1783471;79;21045;-78
2021/09/14 06:48:00;;;;;;;28.05;17.07;;;;;;;17.77;77.87;100935.17;1792874;79;21165;-77
2021/09/14 06:50:26;;;;;;;31.05;15.95;;;;;;;17.91;77.59;100931.47;1790341;79;21475;-78
2021/09/14 06:52:52;;;;;;;27.80;16.37;;;;;;;18.05;77.36;100940.41;1792620;79;21065;-77
2021/09/14 06:55:18;;;;;;;25.50;14.33;;;;;;;18.06;77.11;100933.16;1790287;79;20947;-77
2021/09/14 06:57:44;;;;;;;24.02;15.40;;;;;;;18.16;76.92;100931.71;1796608;79;20990;-77
2021/09/14 07:00:11;;;;;;;18.98;12.73;;;;;;;18.32;76.63;100931.84;1799723;79;21085;-77
2021/09/14 07:02:40;;;;;;;17.25;10.82;;;;;;;18.43;76.31;100932.58;1796071;79;20979;-77
2021/09/14 07:05:08;;;;;;;18.30;12.15;;;;;;;18.39;75.96;100936.21;1789622;79;20992;-77
2021/09/14 07:07:34;;;;;;;17.07;11.03;;;;;;;18.34;75.81;100934.64;1787472;79;21008;-77
2021/09/14 07:10:03;;;;;;;14.25;10.43;;;;;;;18.30;75.58;100938.78;1787908;79;20987;-77
2021/09/14 07:12:28;;;;;;;16.67;9.60;;;;;;;18.27;75.32;100935.67;1788664;79;22599;-77
2021/09/14 07:14:54;;;;;;;13.03;10.98;;;;;;;18.10;75.12;100937.95;1785210;79;20995;-77
2021/09/14 07:17:20;;;;;;;12.90;10.05;;;;;;;18.00;74.99;100942.91;1786016;79;20899;-77
2021/09/14 07:19:46;;;;;;;13.93;10.70;;;;;;;17.81;74.80;100935.59;1785620;79;21485;-77
2021/09/14 07:22:12;;;;;;;13.22;11.25;;;;;;;17.70;74.77;100944.27;1784432;79;21056;-77
2021/09/14 07:24:39;;;;;;;14.63;12.13;;;;;;;17.73;74.74;100942.00;1784448;79;21188;-77
2021/09/14 07:27:05;;;;;;;14.58;10.08;;;;;;;17.85;74.58;100942.25;1784988;78;21024;-78
2021/09/14 07:29:33;;;;;;;15.72;11.15;;;;;;;17.90;74.51;100942.48;1789950;78;21511;-77
2021/09/14 07:31:59;;;;;;;15.72;11.10;;;;;;;18.00;74.40;100948.31;1782574;79;21093;-77
2021/09/14 07:34:25;;;;;;;12.23;9.43;;;;;;;18.09;74.24;100952.47;1787178;79;20892;-77
2021/09/14 07:36:51;;;;;;;15.43;8.58;;;;;;;18.14;74.12;100947.30;1786881;79;21126;-78
2021/09/14 07:39:17;;;;;;;12.47;8.68;;;;;;;18.31;74.05;100951.27;1789832;79;20991;-78
2021/09/14 07:41:43;;;;;;;10.98;7.40;;;;;;;18.41;73.88;100946.27;1773768;79;21543;-80
2021/09/14 07:44:09;;;;;;;12.78;7.62;;;;;;;18.70;73.77;100945.56;1731782;82;21058;-78
2021/09/14 07:46:35;;;;;;;8.53;7.62;;;;;;;19.08;73.53;100950.59;1747459;81;21084;-78
2021/09/14 07:49:01;;;;;;;9.55;7.90;;;;;;;19.39;73.22;100947.99;1733430;82;21184;-78
2021/09/14 07:51:29;;;;;;;11.60;8.03;;;;;;;19.80;73.13;100953.06;1758429;81;21041;-78
2021/09/14 07:53:56;;;;;;;12.25;8.28;;;;;;;19.97;72.80;100952.02;1769848;81;20987;-78
2021/09/14 07:56:22;;;;;;;9.35;8.08;;;;;;;19.91;72.50;100947.48;1703303;82;20987;-78
2021/09/14 07:58:48;;;;;;;11.00;7.30;;;;;;;19.90;72.24;100949.88;1789351;79;21574;-78
2021/09/14 08:01:14;;;;;;;15.93;8.20;;;;;;;19.75;71.98;100950.16;1784479;78;22742;-78
2021/09/14 08:03:40;;;;;;;10.93;8.35;;;;;;;19.71;71.86;100952.15;1785326;79;20964;-78
2021/09/14 08:06:06;;;;;;;9.68;7.58;;;;;;;19.77;71.66;100952.66;1788735;79;21067;-78
2021/09/14 08:08:32;;;;;;;16.15;8.58;;;;;;;19.96;71.44;100949.00;1810548;78;20985;-78
2021/09/14 08:10:58;;;;;;;10.85;8.38;;;;;;;19.95;71.15;100950.87;1825041;78;21014;-79
2021/09/14 08:13:24;;;;;;;14.13;8.50;;;;;;;19.77;70.88;100954.02;1799228;78;21194;-78
2021/09/14 08:15:51;;;;;;;9.48;7.95;;;;;;;19.91;70.72;100951.55;1818194;78;20986;-79
2021/09/14 08:18:17;;;;;;;8.85;7.72;;;;;;;19.93;70.52;100953.49;1792538;80;20923;-78
2021/09/14 08:20:43;;;;;;;9.75;8.28;;;;;;;19.90;70.39;100944.45;1791826;80;20974;-78
2021/09/14 08:23:09;;;;;;;13.80;8.73;;;;;;;19.98;70.24;100946.91;1790181;80;21084;-78
2021/09/14 08:25:35;;;;;;;10.13;7.62;;;;;;;20.01;69.96;100950.54;1801822;78;21358;-79
2021/09/14 08:28:01;;;;;;;14.73;8.18;;;;;;;20.06;69.77;100941.22;1760686;81;21004;-78
2021/09/14 08:30:27;;;;;;;10.78;7.67;;;;;;;20.12;69.64;100941.72;1792223;80;21010;-79
2021/09/14 08:32:53;;;;;;;9.93;7.40;;;;;;;20.18;69.37;100950.31;1760491;81;21363;-78
2021/09/14 08:35:19;;;;;;;12.75;7.33;;;;;;;20.12;69.29;100947.66;1792819;80;21001;-79
2021/09/14 08:37:45;;;;;;;8.25;6.60;;;;;;;20.20;69.11;100946.84;1787742;80;21337;-78
2021/09/14 08:40:12;;;;;;;10.60;7.28;;;;;;;19.94;68.62;100948.39;1793095;80;20998;-79
2021/09/14 08:42:39;;;;;;;9.05;6.25;;;;;;;19.92;68.69;100944.53;1792760;80;21022;-78
2021/09/14 08:45:06;;;;;;;6.90;6.20;;;;;;;19.73;68.54;100946.02;1793197;80;21400;-78
2021/09/14 08:47:33;;;;;;;9.68;7.12;;;;;;;19.48;68.43;100945.09;1823519;78;20946;-79
2021/09/14 08:49:59;;;;;;;12.75;6.85;;;;;;;19.38;68.41;100948.23;1769680;79;22533;-78
2021/09/14 08:52:25;;;;;;;8.68;7.05;;;;;;;19.28;68.30;100944.59;1793099;80;20915;-79
2021/09/14 08:54:51;;;;;;;9.55;6.97;;;;;;;19.11;68.33;100947.45;1793126;80;20967;-78
2021/09/14 08:57:17;;;;;;;9.58;6.92;;;;;;;19.09;68.29;100944.16;1765286;80;20915;-78
2021/09/14 08:59:47;;;;;;;10.13;5.80;;;;;;;19.00;68.23;100938.64;1793454;80;21526;-78
2021/09/14 09:02:16;;;;;;;7.72;6.00;;;;;;;18.89;68.20;100943.38;1758537;81;21038;-78
2021/09/14 09:04:43;;;;;;;9.58;5.80;;;;;;;18.94;68.23;100938.14;1758131;81;21074;-78
2021/09/14 09:07:09;;;;;;;9.40;5.22;;;;;;;18.98;68.18;100942.09;1707031;81;21550;-78
2021/09/14 09:09:35;;;;;;;8.28;5.37;;;;;;;18.94;68.13;100940.34;1753874;81;20963;-78
2021/09/14 09:12:03;;;;;;;7.65;5.12;;;;;;;18.90;68.09;100932.84;1759134;80;20978;-78
2021/09/14 09:14:42;;;;;;;10.25;5.03;;;;;;;18.94;68.01;100938.98;1754084;81;21129;-78
2021/09/14 09:17:13;;;;;;;8.25;5.70;;;;;;;19.02;67.97;100943.34;1768155;81;21050;-78
2021/09/14 09:19:56;;;;;;;10.30;5.65;;;;;;;19.07;67.83;100944.87;1790926;79;21010;-78
2021/09/14 09:22:23;;;;;;;11.00;4.65;;;;;;;19.07;67.79;100940.81;1759739;81;21061;-78
2021/09/14 09:24:52;;;;;;;7.22;4.62;;;;;;;19.07;67.75;100942.71;1753902;80;20998;-78
2021/09/14 09:27:21;;;;;;;7.85;5.53;;;;;;;19.06;67.72;100942.39;1816705;78;21871;-78
2021/09/14 09:29:58;;;;;;;6.85;4.55;;;;;;;19.02;67.64;100938.45;1791004;80;21467;-78
2021/09/14 09:32:25;;;;;;;9.58;4.05;;;;;;;19.00;67.56;100942.70;1823467;78;21526;-78
2021/09/14 09:35:00;;;;;;;5.55;4.10;;;;;;;19.04;67.46;100940.41;1791252;79;21002;-78
2021/09/14 09:37:26;;;;;;;6.90;4.28;;;;;;;19.00;67.35;100941.34;1791229;79;21009;-78
2021/09/14 09:39:52;;;;;;;8.03;3.85;;;;;;;18.94;67.29;100938.14;1823614;78;21770;-78
2021/09/14 09:42:20;;;;;;;5.90;3.95;;;;;;;18.87;67.25;100931.92;1790426;80;21002;-78
2021/09/14 09:44:57;;;;;;;5.33;4.20;;;;;;;18.86;67.23;100935.14;1791187;79;21403;-78
2021/09/14 09:47:24;;;;;;;8.75;5.20;;;;;;;18.91;67.18;100926.41;1823505;78;20991;-78
2021/09/14 09:49:50;;;;;;;7.50;5.00;;;;;;;18.92;67.11;100925.37;1791299;79;21063;-78
2021/09/14 09:52:17;;;;;;;8.43;4.95;;;;;;;18.98;67.09;100926.39;1790754;80;21088;-78
2021/09/14 09:54:45;;;;;;;8.15;5.30;;;;;;;19.07;67.04;100923.23;1823481;78;20970;-78
2021/09/14 09:57:11;;;;;;;8.65;4.60;;;;;;;19.14;66.95;100925.40;1791317;80;20919;-78
2021/09/14 09:59:37;;;;;;;6.62;4.40;;;;;;;19.28;66.86;100919.45;1791050;80;20974;-78
2021/09/14 10:02:23;;;;;;;7.78;4.42;;;;;;;19.32;66.73;100921.49;1791310;80;21005;-78
2021/09/14 10:05:05;;;;;;;7.95;4.20;;;;;;;19.44;66.71;100922.53;1791084;80;21143;-78
2021/09/14 10:07:32;;;;;;;9.03;5.30;;;;;;;19.69;66.60;100928.55;1791373;79;21546;-78
2021/09/14 10:10:00;;;;;;;15.15;5.90;;;;;;;19.82;66.31;100917.63;1796589;79;20974;-78
2021/09/14 10:12:28;;;;;;;7.47;4.80;;;;;;;19.99;66.05;100920.12;1796082;79;20954;-78
2021/09/14 10:15:13;;;;;;;6.05;5.33;;;;;;;20.14;65.91;100919.30;1811676;78;20948;-77
2021/09/14 10:17:51;;;;;;;7.05;5.03;;;;;;;20.33;65.66;100921.07;1829164;78;21980;-78
2021/09/14 10:20:21;;;;;;;6.95;4.47;;;;;;;20.43;65.45;100923.27;1829320;78;20983;-78
2021/09/14 10:23:10;;;;;;;7.42;4.53;;;;;;;20.31;65.23;100919.09;1829386;78;21412;-78
2021/09/14 10:25:36;;;;;;;9.33;4.90;;;;;;;20.21;65.07;100917.37;1828399;77;20952;-77
2021/09/14 10:28:08;;;;;;;7.37;4.83;;;;;;;20.19;64.95;100916.77;1826384;78;22042;-78
2021/09/14 10:30:34;;;;;;;9.18;4.92;;;;;;;20.16;64.87;100914.48;1795925;79;21874;-77
2021/09/14 10:33:00;;;;;;;5.75;4.35;;;;;;;20.08;64.73;100916.64;1796743;79;20959;-78
2021/09/14 10:35:31;;;;;;;6.25;4.33;;;;;;;20.17;64.63;100916.14;1765137;81;21025;-77
2021/09/14 10:38:12;;;;;;;6.90;4.58;;;;;;;20.12;64.31;100917.86;1764907;81;20962;-78
2021/09/14 10:40:44;;;;;;;7.50;4.87;;;;;;;20.26;64.16;100914.84;1796823;79;21403;-77
2021/09/14 10:43:22;;;;;;;7.05;4.75;;;;;;;20.39;63.98;100912.56;1767525;79;22293;-77
2021/09/14 10:45:48;;;;;;;7.72;5.05;;;;;;;20.51;63.77;100914.87;1829417;78;20983;-77
2021/09/14 10:48:23;;;;;;;7.90;4.83;;;;;;;20.49;63.42;100912.06;1829365;78;20876;-77
2021/09/14 10:50:49;;;;;;;10.93;5.35;;;;;;;20.48;63.32;100911.78;1829254;78;20939;-77
2021/09/14 10:53:31;;;;;;;6.50;3.98;;;;;;;20.60;63.15;100912.69;1829310;78;20912;-77
2021/09/14 10:55:59;;;;;;;3.42;3.12;;;;;;;20.70;62.91;100915.72;1829091;78;21896;-78
2021/09/14 10:58:26;;;;;;;4.65;2.70;;;;;;;20.83;62.57;100910.16;1828663;78;21018;-78
2021/09/14 11:00:53;;;;;;;6.22;3.30;;;;;;;21.00;62.28;100907.18;1829211;78;20939;-78
2021/09/14 11:03:19;;;;;;;6.15;3.25;;;;;;;21.02;61.86;100903.70;1824562;78;20963;-78
2021/09/14 11:05:51;;;;;;;6.17;3.50;;;;;;;20.96;61.56;100910.04;1792643;79;21033;-78
2021/09/14 11:08:25;;;;;;;4.45;3.70;;;;;;;21.02;61.34;100908.30;1796254;79;21546;-78
2021/09/14 11:10:58;;;;;;;5.00;4.45;;;;;;;21.11;61.10;100906.98;1764722;81;21006;-79
2021/09/14 11:13:26;;;;;;;6.28;4.30;;;;;;;21.15;60.82;100903.57;1827685;78;20970;-79
2021/09/14 11:16:02;;;;;;;6.72;4.40;;;;;;;21.24;60.62;100907.66;1796331;79;21029;-79
2021/09/14 11:18:31;;;;;;;6.10;4.30;;;;;;;21.36;60.46;100905.81;1792257;79;21046;-78
2021/09/14 11:21:11;;;;;;;5.65;4.08;;;;;;;21.48;60.30;100903.17;1828462;77;21351;-79
2021/09/14 11:23:41;;;;;;;7.95;4.47;;;;;;;21.63;60.18;100900.89;1796110;79;20915;-79
2021/09/14 11:26:11;;;;;;;;;;;;;;;21.65;59.91;100904.19;1798310;78;20993;-79
2021/09/14 11:28:38;;;;;;;17.10;6.03;;;;;;;21.80;59.77;100899.70;1796042;79;20174;-78
2021/09/14 11:31:08;;;;;;;7.80;4.90;;;;;;;21.78;59.48;100892.30;1764451;81;20974;-79
2021/09/14 11:33:35;;;;;;;32.17;7.17;;;;;;;21.74;59.29;100893.84;1780546;80;22266;-79
2021/09/14 11:36:01;;;;;;;7.45;3.62;;;;;;;21.74;59.25;100891.13;1795685;79;20966;-79
2021/09/14 11:38:27;;;;;;;12.58;4.17;;;;;;;21.77;59.16;100887.95;1764156;81;20950;-78
2021/09/14 11:40:56;;;;;;;7.40;5.30;;;;;;;21.73;59.04;100889.47;1800638;78;21515;-79
2021/09/14 11:43:25;;;;;;;31.63;8.17;;;;;;;21.74;59.01;100886.50;1816769;78;20966;-78
2021/09/14 11:45:54;;;;;;;9.15;4.70;;;;;;;21.69;58.83;100883.67;1766580;79;21641;-78
2021/09/14 11:48:24;;;;;;;20.35;7.58;;;;;;;21.68;58.66;100879.81;1778735;80;20996;-78
2021/09/14 11:51:07;;;;;;;;;;;;;;;21.70;58.64;100883.14;1784309;79;21003;-79
2021/09/14 11:53:33;;;;;;;6.72;4.30;;;;;;;21.59;58.43;100888.83;1805939;79;20138;-78
2021/09/14 11:55:59;;;;;;;9.28;4.60;;;;;;;21.51;58.49;100881.52;1804930;79;21510;-78
2021/09/14 11:58:33;;;;;;;5.10;3.58;;;;;;;21.56;58.44;100886.58;1781421;79;21524;-78
2021/09/14 12:01:08;;;;;;;6.03;4.03;;;;;;;21.68;58.38;100883.89;1805699;79;21048;-78
2021/09/14 12:03:44;;;;;;;6.40;4.15;;;;;;;21.67;58.23;100879.53;1805928;79;21039;-79
2021/09/14 12:06:11;;;;;;;7.03;4.28;;;;;;;21.65;58.16;100880.28;1828474;78;21447;-79
2021/09/14 12:08:42;;;;;;;7.05;4.22;;;;;;;21.55;58.07;100879.48;1787593;79;21013;-78
2021/09/14 12:11:08;;;;;;;6.17;4.78;;;;;;;21.59;58.11;100877.14;1761400;81;21430;-79